createdAt,value
2018-11-26T00:01:44.922Z,49.00
2018-11-26T00:04:16.234Z,54.90
2018-11-26T00:06:47.363Z,56.17
2018-11-26T00:09:17.878Z,50.10
2018-11-26T00:11:48.840Z,46.47
2018-11-26T00:14:19.162Z,49.47
2018-11-26T00:16:49.194Z,47.67
2018-11-26T00:19:20.026Z,55.43
2018-11-26T00:21:52.731Z,55.93
2018-11-26T00:24:23.452Z,53.57
2018-11-26T00:26:53.491Z,54.80
2018-11-26T00:29:24.808Z,51.10
2018-11-26T00:31:55.544Z,53.13
2018-11-26T00:34:26.127Z,54.03
2018-11-26T00:36:59.034Z,55.03
2018-11-26T00:39:30.536Z,59.97
2018-11-26T00:42:02.211Z,54.53
2018-11-26T00:44:32.293Z,51.53
2018-11-26T00:47:03.203Z,58.27
2018-11-26T00:49:34.795Z,65.50
2018-11-26T00:52:04.779Z,59.10
2018-11-26T00:54:35.327Z,60.70
2018-11-26T00:57:05.913Z,63.37
2018-11-26T00:59:35.989Z,56.90
2018-11-26T01:02:05.871Z,57.07
2018-11-26T01:04:37.003Z,57.20
2018-11-26T01:07:07.736Z,59.10
2018-11-26T01:09:37.855Z,58.53
2018-11-26T01:12:11.363Z,60.10
2018-11-26T01:14:43.655Z,56.83
2018-11-26T01:17:14.311Z,53.20
2018-11-26T01:19:43.934Z,58.03
2018-11-26T01:22:14.922Z,56.90
2018-11-26T01:24:45.576Z,57.93
2018-11-26T01:27:16.647Z,55.07
2018-11-26T01:29:46.561Z,54.93
2018-11-26T01:32:16.432Z,55.50
2018-11-26T01:34:46.252Z,56.63
2018-11-26T01:37:17.476Z,52.83
2018-11-26T01:39:48.309Z,54.30
2018-11-26T01:42:18.340Z,54.23
2018-11-26T01:44:48.931Z,53.10
2018-11-26T01:47:18.989Z,55.00
2018-11-26T01:49:49.108Z,63.93
2018-11-26T01:52:20.535Z,56.43
2018-11-26T01:54:50.339Z,55.07
2018-11-26T01:57:21.239Z,55.93
2018-11-26T01:59:51.522Z,57.27
2018-11-26T02:02:22.430Z,58.30
2018-11-26T02:04:52.794Z,55.57
2018-11-26T02:07:23.446Z,54.77
2018-11-26T02:09:53.110Z,49.20
2018-11-26T02:12:23.666Z,52.27
2018-11-26T02:14:55.485Z,58.20
2018-11-26T02:17:25.873Z,52.73
2018-11-26T02:19:56.448Z,51.67
2018-11-26T02:22:27.279Z,48.10
2018-11-26T02:24:57.364Z,44.73
2018-11-26T02:27:28.220Z,51.23
2018-11-26T02:29:58.325Z,46.10
2018-11-26T02:32:28.315Z,53.80
2018-11-26T02:34:58.941Z,49.07
2018-11-26T02:37:30.213Z,47.17
2018-11-26T02:40:01.041Z,46.53
2018-11-26T02:42:30.613Z,53.33
2018-11-26T02:45:02.144Z,45.93
2018-11-26T02:47:31.723Z,52.83
2018-11-26T02:50:01.122Z,53.73
2018-11-26T02:52:31.773Z,50.93
2018-11-26T02:55:02.227Z,52.53
2018-11-26T02:57:35.355Z,52.00
2018-11-26T03:00:06.655Z,49.00
2018-11-26T03:02:36.455Z,54.23
2018-11-26T03:05:07.916Z,60.07
2018-11-26T03:07:38.593Z,49.07
2018-11-26T03:10:11.338Z,51.93
2018-11-26T03:12:41.296Z,60.83
2018-11-26T03:15:12.534Z,57.40
2018-11-26T03:17:45.578Z,55.23
2018-11-26T03:20:16.830Z,50.77
2018-11-26T03:22:47.577Z,56.73
2018-11-26T03:25:17.452Z,54.90
2018-11-26T03:27:48.097Z,54.50
2018-11-26T03:30:22.034Z,52.13
2018-11-26T03:32:51.951Z,42.47
2018-11-26T03:35:21.953Z,44.50
2018-11-26T03:37:52.526Z,47.57
2018-11-26T03:40:22.430Z,50.93
2018-11-26T03:42:52.712Z,47.60
2018-11-26T03:45:22.677Z,43.97
2018-11-26T03:47:52.462Z,44.77
2018-11-26T03:50:23.178Z,51.30
2018-11-26T03:52:53.535Z,42.40
2018-11-26T03:55:24.906Z,46.03
2018-11-26T03:57:54.788Z,45.23
2018-11-26T04:00:24.679Z,43.93
2018-11-26T04:02:55.200Z,46.83
2018-11-26T04:05:26.812Z,41.20
2018-11-26T04:07:57.271Z,48.27
2018-11-26T04:10:27.600Z,58.53
2018-11-26T04:12:58.515Z,47.37
2018-11-26T04:15:29.244Z,48.70
2018-11-26T04:17:59.611Z,49.50
2018-11-26T04:20:29.838Z,47.47
2018-11-26T04:22:59.668Z,51.73
2018-11-26T04:25:29.636Z,52.70
2018-11-26T04:27:59.321Z,55.43
2018-11-26T04:30:30.627Z,49.47
2018-11-26T04:33:02.523Z,47.83
2018-11-26T04:35:32.077Z,52.63
2018-11-26T04:38:02.453Z,50.63
2018-11-26T04:40:32.671Z,47.23
2018-11-26T04:43:03.337Z,54.20
2018-11-26T04:45:34.100Z,52.47
2018-11-26T04:48:04.906Z,49.83
2018-11-26T04:50:35.117Z,51.57
2018-11-26T04:53:05.739Z,54.00
2018-11-26T04:55:35.935Z,48.40
2018-11-26T04:58:06.117Z,50.03
2018-11-26T05:00:36.966Z,44.60
2018-11-26T05:03:07.810Z,44.37
2018-11-26T05:05:38.129Z,47.80
2018-11-26T05:08:08.432Z,46.20
2018-11-26T05:10:38.563Z,46.13
2018-11-26T05:13:09.502Z,50.23
2018-11-26T05:15:39.700Z,50.17
2018-11-26T05:18:09.509Z,42.83
2018-11-26T05:20:39.834Z,47.47
2018-11-26T05:23:10.852Z,53.43
2018-11-26T05:25:42.128Z,44.37
2018-11-26T05:28:12.122Z,41.10
2018-11-26T05:30:42.214Z,44.17
2018-11-26T05:33:13.308Z,46.07
2018-11-26T05:35:43.883Z,37.67
2018-11-26T05:38:13.716Z,44.43
2018-11-26T05:40:44.913Z,44.80
2018-11-26T05:43:16.071Z,45.97
2018-11-26T05:45:47.095Z,42.10
2018-11-26T05:48:17.602Z,45.47
2018-11-26T05:50:47.778Z,40.83
2018-11-26T05:53:18.470Z,50.13
2018-11-26T05:55:48.782Z,45.50
2018-11-26T05:58:19.775Z,44.43
2018-11-26T06:00:49.459Z,40.60
2018-11-26T06:03:19.597Z,41.17
2018-11-26T06:05:49.580Z,50.17
2018-11-26T06:08:19.847Z,50.10
2018-11-26T06:10:49.613Z,41.00
2018-11-26T06:13:20.115Z,45.30
2018-11-26T06:15:50.271Z,42.60
2018-11-26T06:18:19.909Z,41.37
2018-11-26T06:20:50.059Z,43.43
2018-11-26T06:23:20.113Z,47.60
2018-11-26T06:25:50.203Z,45.73
2018-11-26T06:28:21.714Z,41.60
2018-11-26T06:30:52.041Z,43.47
2018-11-26T06:33:22.271Z,44.50
2018-11-26T06:35:52.419Z,48.77
2018-11-26T06:38:21.771Z,53.07
2018-11-26T06:40:51.832Z,50.90
2018-11-26T06:43:22.016Z,46.50
2018-11-26T06:45:53.293Z,47.83
2018-11-26T06:48:22.977Z,45.17
2018-11-26T06:50:52.755Z,54.27
2018-11-26T06:53:23.397Z,49.13
2018-11-26T06:55:53.194Z,52.00
2018-11-26T06:58:22.480Z,46.57
2018-11-26T07:00:52.088Z,52.37
2018-11-26T07:03:22.134Z,51.53
2018-11-26T07:05:52.991Z,50.80
2018-11-26T07:08:24.720Z,57.63
2018-11-26T07:10:54.805Z,52.07
2018-11-26T07:13:24.648Z,52.00
2018-11-26T07:15:54.224Z,50.83
2018-11-26T07:18:23.893Z,53.33
2018-11-26T07:20:53.724Z,46.60
2018-11-26T07:23:23.552Z,58.27
2018-11-26T07:25:53.560Z,44.63
2018-11-26T07:28:23.621Z,46.07
2018-11-26T07:30:56.538Z,53.60
2018-11-26T07:33:27.314Z,49.33
2018-11-26T07:35:57.702Z,57.37
2018-11-26T07:38:27.536Z,51.03
2018-11-26T07:40:57.470Z,50.80
2018-11-26T07:43:27.406Z,49.17
2018-11-26T07:45:57.306Z,47.03
2018-11-26T07:48:27.096Z,50.73
2018-11-26T07:50:56.736Z,54.73
2018-11-26T07:53:26.158Z,52.37
2018-11-26T07:55:55.744Z,54.07
2018-11-26T07:58:25.506Z,48.83
2018-11-26T08:00:54.893Z,55.83
2018-11-26T08:03:24.762Z,51.57
2018-11-26T08:05:54.053Z,52.73
2018-11-26T08:08:23.579Z,42.10
2018-11-26T08:10:53.704Z,49.90
2018-11-26T08:13:23.550Z,51.43
2018-11-26T08:15:53.611Z,53.47
2018-11-26T08:18:23.961Z,50.83
2018-11-26T08:20:54.536Z,47.07
2018-11-26T08:23:24.220Z,43.23
2018-11-26T08:25:54.165Z,43.97
2018-11-26T08:28:24.127Z,52.20
2018-11-26T08:30:54.179Z,45.00
2018-11-26T08:33:24.785Z,45.33
2018-11-26T08:36:00.115Z,43.37
2018-11-26T08:38:34.769Z,44.97
2018-11-26T08:41:13.351Z,46.13
2018-11-26T08:43:46.339Z,48.63
2018-11-26T08:46:21.201Z,49.97
2018-11-26T08:48:56.735Z,45.97
2018-11-26T08:51:26.612Z,41.77
2018-11-26T08:53:57.921Z,45.87
2018-11-26T08:56:27.831Z,44.97
2018-11-26T08:58:58.234Z,45.80
2018-11-26T09:01:33.841Z,41.20
2018-11-26T09:04:11.350Z,49.33
2018-11-26T09:06:41.937Z,41.37
2018-11-26T09:09:12.952Z,40.93
2018-11-26T09:11:43.665Z,47.10
2018-11-26T09:14:13.508Z,40.50
2018-11-26T09:16:44.544Z,40.83
2018-11-26T09:19:17.302Z,41.13
2018-11-26T09:21:47.357Z,35.10
2018-11-26T09:24:17.928Z,40.30
2018-11-26T09:26:47.377Z,44.73
2018-11-26T09:29:16.886Z,44.03
2018-11-26T09:31:46.949Z,38.33
2018-11-26T09:34:16.538Z,40.97
2018-11-26T09:36:46.821Z,41.30
2018-11-26T09:39:16.795Z,42.17
2018-11-26T09:41:46.972Z,44.73
2018-11-26T09:44:20.118Z,36.20
2018-11-26T09:46:50.336Z,40.00
2018-11-26T09:49:20.537Z,46.40
2018-11-26T09:51:50.342Z,45.83
2018-11-26T09:54:25.795Z,38.27
2018-11-26T09:56:51.553Z,39.90
2018-11-26T09:59:20.987Z,40.63
2018-11-26T10:01:51.376Z,38.83
2018-11-26T10:04:23.326Z,38.50
2018-11-26T10:06:53.391Z,35.73
2018-11-26T10:09:23.251Z,34.20
2018-11-26T10:11:54.168Z,33.97
2018-11-26T10:14:23.629Z,34.97
2018-11-26T10:16:54.012Z,38.37
2018-11-26T10:19:24.715Z,34.67
2018-11-26T10:21:55.675Z,30.40
2018-11-26T10:24:25.152Z,33.30
2018-11-26T10:26:55.291Z,37.60
2018-11-26T10:29:25.909Z,31.60
2018-11-26T10:31:57.327Z,32.30
2018-11-26T10:34:27.945Z,32.07
2018-11-26T10:36:57.961Z,32.03
2018-11-26T10:39:28.292Z,31.53
2018-11-26T10:41:58.666Z,32.90
2018-11-26T10:44:29.377Z,29.40
2018-11-26T10:46:59.380Z,26.97
2018-11-26T10:49:29.138Z,29.57
2018-11-26T10:51:59.061Z,29.77
2018-11-26T10:54:29.348Z,32.83
2018-11-26T10:57:00.598Z,34.50
2018-11-26T10:59:30.668Z,31.03
2018-11-26T11:02:02.538Z,32.27
2018-11-26T11:04:32.601Z,29.70
2018-11-26T11:07:02.305Z,29.27
2018-11-26T11:09:32.773Z,30.97
2018-11-26T11:12:02.868Z,31.90
2018-11-26T11:14:32.522Z,31.07
2018-11-26T11:17:02.016Z,32.63
2018-11-26T11:19:31.896Z,36.07
2018-11-26T11:22:01.999Z,31.20
2018-11-26T11:24:32.748Z,34.57
2018-11-26T11:27:02.598Z,33.73
2018-11-26T11:29:32.420Z,29.20
2018-11-26T11:32:02.746Z,34.83
2018-11-26T11:34:32.190Z,37.60
2018-11-26T11:37:02.350Z,35.40
2018-11-26T11:39:32.246Z,34.33
2018-11-26T11:42:02.264Z,29.07
2018-11-26T11:44:32.830Z,34.87
2018-11-26T11:47:03.734Z,29.33
2018-11-26T11:49:34.396Z,39.63
2018-11-26T11:52:04.817Z,33.47
2018-11-26T11:54:34.672Z,33.67
2018-11-26T11:57:06.158Z,31.50
2018-11-26T11:59:35.908Z,35.57
2018-11-26T12:02:07.074Z,34.67
2018-11-26T12:04:36.264Z,33.27
2018-11-26T12:07:06.451Z,32.97
2018-11-26T12:09:36.361Z,32.37
2018-11-26T12:12:12.621Z,30.67
2018-11-26T12:14:42.239Z,34.20
2018-11-26T12:17:12.485Z,32.83
2018-11-26T12:19:42.495Z,34.97
2018-11-26T12:22:13.596Z,31.50
2018-11-26T12:24:43.268Z,30.73
2018-11-26T12:27:14.706Z,34.07
2018-11-26T12:29:44.729Z,35.40
2018-11-26T12:32:14.266Z,37.10
2018-11-26T12:34:44.021Z,27.50
2018-11-26T12:37:14.266Z,30.77
2018-11-26T12:39:44.450Z,33.13
2018-11-26T12:42:14.564Z,30.07
2018-11-26T12:44:50.238Z,36.27
2018-11-26T12:47:21.272Z,34.93
2018-11-26T12:49:51.718Z,32.93
2018-11-26T12:52:22.047Z,30.63
2018-11-26T12:54:53.242Z,32.83
2018-11-26T12:57:23.519Z,31.70
2018-11-26T12:59:53.846Z,33.97
2018-11-26T13:02:23.919Z,36.37
2018-11-26T13:04:53.963Z,34.27
2018-11-26T13:07:24.082Z,32.83
2018-11-26T13:09:54.597Z,34.83
2018-11-26T13:12:25.041Z,35.00
2018-11-26T13:14:55.425Z,30.77
2018-11-26T13:17:25.885Z,32.23
2018-11-26T13:19:56.955Z,34.53
2018-11-26T13:22:27.814Z,36.90
2018-11-26T13:24:58.893Z,38.60
2018-11-26T13:27:29.116Z,34.17
2018-11-26T13:29:59.269Z,36.97
2018-11-26T13:32:28.954Z,33.33
2018-11-26T13:34:58.635Z,31.10
2018-11-26T13:37:29.425Z,34.60
2018-11-26T13:39:59.578Z,35.80
2018-11-26T13:42:30.143Z,38.20
2018-11-26T13:45:03.774Z,34.97
2018-11-26T13:47:34.083Z,34.90
2018-11-26T13:50:04.154Z,33.73
2018-11-26T13:52:33.736Z,33.60
2018-11-26T13:55:03.946Z,37.07
2018-11-26T13:57:33.797Z,30.27
2018-11-26T14:00:05.649Z,33.97
2018-11-26T14:02:36.401Z,33.00
2018-11-26T14:05:08.917Z,40.00
2018-11-26T14:07:40.234Z,35.60
2018-11-26T14:10:13.787Z,38.93
2018-11-26T14:12:44.271Z,39.37
2018-11-26T14:15:15.088Z,37.30
2018-11-26T14:17:45.712Z,37.13
2018-11-26T14:20:17.379Z,47.63
2018-11-26T14:22:48.669Z,39.67
2018-11-26T14:25:20.033Z,46.50
2018-11-26T14:27:51.001Z,43.77
2018-11-26T14:30:25.425Z,43.20
2018-11-26T14:32:57.691Z,37.17
2018-11-26T14:35:31.870Z,41.97
2018-11-26T14:38:05.987Z,39.77
2018-11-26T14:40:45.148Z,35.40
2018-11-26T14:43:15.559Z,34.87
2018-11-26T14:45:45.412Z,41.07
2018-11-26T14:48:15.745Z,37.93
2018-11-26T14:50:45.983Z,37.53
2018-11-26T14:53:16.929Z,38.13
2018-11-26T14:55:46.634Z,36.83
2018-11-26T14:58:16.120Z,38.47
2018-11-26T15:00:46.686Z,36.20
2018-11-26T15:03:16.619Z,35.80
2018-11-26T15:05:46.110Z,35.63
2018-11-26T15:08:16.027Z,33.13
2018-11-26T15:10:46.875Z,33.00
2018-11-26T15:13:16.885Z,35.60
2018-11-26T15:15:49.016Z,35.07
2018-11-26T15:18:19.588Z,35.20
2018-11-26T15:20:49.234Z,38.77
2018-11-26T15:23:21.792Z,42.33
2018-11-26T15:25:51.672Z,33.63
2018-11-26T15:28:23.713Z,35.90
2018-11-26T15:30:54.206Z,33.50
2018-11-26T15:33:23.574Z,37.40
2018-11-26T15:35:54.139Z,32.23
2018-11-26T15:38:24.295Z,30.97
2018-11-26T15:40:55.600Z,35.67
2018-11-26T15:43:25.988Z,34.97
2018-11-26T15:46:08.217Z,31.70
2018-11-26T15:48:39.949Z,36.37
2018-11-26T15:51:14.262Z,32.67
2018-11-26T15:53:47.423Z,32.23
2018-11-26T15:56:16.899Z,30.27
2018-11-26T15:58:47.791Z,29.20
2018-11-26T16:01:17.855Z,31.53
2018-11-26T16:03:47.907Z,30.60
2018-11-26T16:06:19.209Z,30.77
2018-11-26T16:08:49.610Z,35.90
2018-11-26T16:11:19.159Z,34.67
2018-11-26T16:13:48.825Z,30.87
2018-11-26T16:16:19.165Z,33.43
2018-11-26T16:18:48.839Z,33.47
2018-11-26T16:21:18.768Z,32.13
2018-11-26T16:23:48.440Z,32.87
2018-11-26T16:26:17.909Z,29.60
2018-11-26T16:28:47.771Z,26.50
2018-11-26T16:31:19.504Z,27.90
2018-11-26T16:33:53.403Z,25.57
2018-11-26T16:36:27.086Z,27.00
2018-11-26T16:39:03.200Z,21.73
2018-11-26T16:41:33.106Z,23.77
2018-11-26T16:44:03.211Z,24.50
2018-11-26T16:46:33.130Z,22.33
2018-11-26T16:49:03.046Z,27.17
2018-11-26T16:51:32.700Z,23.77
2018-11-26T16:54:02.486Z,27.33
2018-11-26T16:56:31.968Z,22.40
2018-11-26T16:59:01.386Z,25.90
2018-11-26T17:01:31.149Z,26.87
2018-11-26T17:04:00.812Z,24.17
2018-11-26T17:06:30.443Z,24.47
2018-11-26T17:08:59.921Z,23.93
2018-11-26T17:11:29.700Z,26.03
2018-11-26T17:13:59.526Z,24.00
2018-11-26T17:16:29.221Z,26.73
2018-11-26T17:18:58.797Z,22.37
2018-11-26T17:21:28.646Z,22.93
2018-11-26T17:23:59.190Z,22.90
2018-11-26T17:26:28.763Z,28.47
2018-11-26T17:28:58.059Z,24.87
2018-11-26T17:31:28.546Z,23.43
2018-11-26T17:33:58.707Z,26.87
2018-11-26T17:36:28.815Z,29.00
2018-11-26T17:38:59.047Z,25.07
2018-11-26T17:41:29.785Z,24.07
2018-11-26T17:44:00.352Z,22.47
2018-11-26T17:46:30.288Z,30.03
2018-11-26T17:49:01.641Z,31.23
2018-11-26T17:51:31.359Z,29.33
2018-11-26T17:54:02.053Z,28.93
2018-11-26T17:56:32.328Z,27.33
2018-11-26T17:59:02.409Z,25.00
2018-11-26T18:01:37.677Z,28.63
2018-11-26T18:04:08.911Z,26.37
2018-11-26T18:06:39.397Z,26.63
2018-11-26T18:09:10.724Z,27.67
2018-11-26T18:11:41.379Z,25.80
2018-11-26T18:14:11.124Z,30.00
2018-11-26T18:16:41.683Z,30.47
2018-11-26T18:19:12.869Z,24.87
2018-11-26T18:21:43.244Z,22.83
2018-11-26T18:24:14.115Z,30.13
2018-11-26T18:26:43.751Z,34.27
2018-11-26T18:29:13.958Z,26.53
2018-11-26T18:31:44.024Z,21.87
2018-11-26T18:34:14.648Z,24.83
2018-11-26T18:36:44.895Z,19.33
2018-11-26T18:39:21.730Z,21.33
2018-11-26T18:41:53.360Z,19.73
2018-11-26T18:44:23.416Z,19.60
2018-11-26T18:46:53.366Z,20.63
2018-11-26T18:49:23.668Z,20.97
2018-11-26T18:51:54.258Z,18.93
2018-11-26T18:54:23.854Z,18.90
2018-11-26T18:56:53.964Z,30.83
2018-11-26T18:59:23.485Z,23.50
2018-11-26T19:01:53.190Z,17.07
2018-11-26T19:04:23.292Z,23.43
2018-11-26T19:06:53.328Z,20.10
2018-11-26T19:09:24.663Z,20.77
2018-11-26T19:11:54.964Z,20.13
2018-11-26T19:14:25.864Z,15.93
2018-11-26T19:16:55.356Z,19.93
2018-11-26T19:19:26.741Z,20.13
2018-11-26T19:21:58.726Z,19.40
2018-11-26T19:24:29.698Z,18.10
2018-11-26T19:27:01.040Z,19.63
2018-11-26T19:29:32.709Z,20.87
2018-11-26T19:32:04.158Z,20.80
2018-11-26T19:34:35.688Z,19.30
2018-11-26T19:37:07.072Z,21.80
2018-11-26T19:39:36.445Z,19.73
2018-11-26T19:42:06.744Z,19.73
2018-11-26T19:44:37.396Z,20.20
2018-11-26T19:47:09.884Z,20.53
2018-11-26T19:49:40.580Z,22.30
2018-11-26T19:52:11.964Z,20.83
2018-11-26T19:54:42.803Z,21.13
2018-11-26T19:57:13.912Z,22.50
2018-11-26T19:59:44.208Z,25.60
2018-11-26T20:02:14.004Z,23.70
2018-11-26T20:04:51.797Z,23.97
2018-11-26T20:07:28.565Z,22.50
2018-11-26T20:09:59.749Z,21.23
2018-11-26T20:12:31.481Z,26.67
2018-11-26T20:15:02.574Z,23.83
2018-11-26T20:17:32.506Z,22.80
2018-11-26T20:20:04.347Z,21.37
2018-11-26T20:22:34.343Z,25.37
2018-11-26T20:25:05.075Z,27.73
2018-11-26T20:27:34.495Z,26.70
2018-11-26T20:30:04.117Z,28.00
2018-11-26T20:32:34.276Z,24.30
2018-11-26T20:35:04.482Z,28.17
2018-11-26T20:37:34.591Z,30.83
2018-11-26T20:40:04.922Z,32.63
2018-11-26T20:42:35.289Z,27.03
2018-11-26T20:45:08.255Z,29.60
2018-11-26T20:47:37.825Z,26.63
2018-11-26T20:50:11.456Z,31.87
2018-11-26T20:52:41.011Z,31.50
2018-11-26T20:55:13.442Z,27.57
2018-11-26T20:57:44.154Z,33.73
2018-11-26T21:00:21.071Z,27.90
2018-11-26T21:02:52.498Z,31.67
2018-11-26T21:05:22.250Z,29.70
2018-11-26T21:07:54.218Z,26.30
2018-11-26T21:10:24.519Z,28.83
2018-11-26T21:12:55.698Z,27.47
2018-11-26T21:15:27.797Z,30.63
2018-11-26T21:17:59.075Z,29.97
2018-11-26T21:20:33.246Z,26.93
2018-11-26T21:23:03.198Z,31.77
2018-11-26T21:25:32.917Z,29.70
2018-11-26T21:28:03.052Z,33.10
2018-11-26T21:30:32.558Z,30.73
2018-11-26T21:33:03.731Z,28.00
2018-11-26T21:35:35.329Z,27.40
2018-11-26T21:38:05.824Z,29.90
2018-11-26T21:40:35.889Z,30.10
2018-11-26T21:43:09.021Z,27.80
2018-11-26T21:45:48.613Z,26.87
2018-11-26T21:48:18.580Z,25.97
2018-11-26T21:50:48.155Z,30.77
2018-11-26T21:53:19.112Z,29.70
2018-11-26T21:55:52.127Z,26.40
2018-11-26T21:58:22.925Z,27.73
2018-11-26T22:00:57.157Z,30.23
2018-11-26T22:03:30.523Z,31.97
2018-11-26T22:05:57.192Z,30.27
2018-11-26T22:08:27.073Z,29.53
2018-11-26T22:10:56.479Z,31.10
2018-11-26T22:13:27.039Z,29.00
2018-11-26T22:15:58.133Z,30.73
2018-11-26T22:18:27.976Z,31.80
2018-11-26T22:21:01.029Z,31.67
2018-11-26T22:23:32.195Z,32.43
2018-11-26T22:26:02.445Z,31.67
2018-11-26T22:28:32.123Z,27.67
2018-11-26T22:31:01.913Z,24.37
2018-11-26T22:33:31.887Z,28.53
2018-11-26T22:36:02.125Z,34.47
2018-11-26T22:38:32.135Z,24.77
2018-11-26T22:41:01.825Z,29.87
2018-11-26T22:43:31.891Z,29.77
2018-11-26T22:46:01.771Z,29.27
2018-11-26T22:48:31.424Z,36.40
2018-11-26T22:51:01.899Z,24.47
2018-11-26T22:53:32.703Z,26.67
2018-11-26T22:56:03.068Z,29.87
2018-11-26T22:58:34.313Z,26.33
2018-11-26T23:01:05.639Z,24.90
2018-11-26T23:03:36.297Z,28.57
2018-11-26T23:06:07.062Z,33.13
2018-11-26T23:08:38.144Z,31.53
2018-11-26T23:11:09.339Z,29.00
2018-11-26T23:13:39.772Z,29.63
2018-11-26T23:16:09.896Z,29.13
2018-11-26T23:18:42.464Z,25.10
2018-11-26T23:21:13.570Z,24.90
2018-11-26T23:23:45.018Z,26.63
2018-11-26T23:26:14.706Z,25.77
2018-11-26T23:28:44.238Z,28.67
2018-11-26T23:31:14.874Z,26.17
2018-11-26T23:33:45.633Z,31.23
2018-11-26T23:36:17.054Z,25.90
2018-11-26T23:38:47.138Z,27.77
2018-11-26T23:41:16.780Z,25.97
2018-11-26T23:43:48.322Z,29.17
2018-11-26T23:46:18.786Z,28.97
2018-11-26T23:48:49.004Z,25.57
2018-11-26T23:51:19.584Z,24.50
2018-11-26T23:53:50.941Z,24.13
2018-11-26T23:56:21.591Z,26.30
2018-11-26T23:58:51.983Z,30.47
